Time;durP1;ratioP1;P1;durP2;ratioP2;P2;SDS_P1;SDS_P2;PMS_P1;PMS_P2;Temp;Humidity;BMP_temperature;BMP_pressure;BME280_temperature;BME280_humidity;BME280_pressure;Samples;Min_cycle;Max_cycle;Signal;HPM_P1;HPM_P2
2021/09/20 00:01:43;;;;;;;7.47;3.03;;;;;;;21.63;43.63;102020.31;5051758;28;20491;-82
2021/09/20 00:04:08;;;;;;;6.22;3.15;;;;;;;21.50;44.04;102027.91;5053060;28;20471;-82
2021/09/20 00:06:34;;;;;;;9.55;3.90;;;;;;;21.60;43.70;102033.75;5052932;28;20414;-82
2021/09/20 00:08:59;;;;;;;5.32;3.45;;;;;;;21.53;43.90;102039.13;5051215;28;20025;-82
2021/09/20 00:11:25;;;;;;;7.82;3.47;;;;;;;21.58;43.58;102041.66;5052592;28;20025;-82
2021/09/20 00:13:51;;;;;;;5.80;3.10;;;;;;;21.39;44.02;102044.31;5052878;28;20021;-82
2021/09/20 00:16:16;;;;;;;5.43;3.22;;;;;;;21.39;44.04;102044.31;5052900;28;20091;-82
2021/09/20 00:18:42;;;;;;;6.78;3.42;;;;;;;21.48;43.69;102041.38;5052739;28;20025;-82
2021/09/20 00:21:08;;;;;;;8.38;4.05;;;;;;;21.50;43.62;102042.63;5052786;28;20025;-81
2021/09/20 00:23:33;;;;;;;6.85;3.40;;;;;;;21.53;43.65;102043.88;5051439;28;20035;-81
2021/09/20 00:25:59;;;;;;;6.18;3.25;;;;;;;21.41;43.63;102042.00;5052620;28;20037;-82
2021/09/20 00:28:28;;;;;;;5.15;3.35;;;;;;;21.37;43.82;102057.75;5051571;28;20476;-82
2021/09/20 00:30:53;;;;;;;9.00;3.53;;;;;;;21.30;44.00;102058.34;5052720;28;20021;-82
2021/09/20 00:33:20;;;;;;;7.47;3.22;;;;;;;21.27;44.03;102058.22;5051459;28;20070;-82
2021/09/20 00:35:46;;;;;;;12.45;3.03;;;;;;;21.33;43.67;102049.31;5051177;28;20039;-81
2021/09/20 00:38:11;;;;;;;8.15;3.42;;;;;;;21.34;43.60;102064.03;5051427;28;20035;-82
2021/09/20 00:40:37;;;;;;;8.68;3.60;;;;;;;21.40;43.47;102067.38;5052533;28;20520;-82
2021/09/20 00:43:03;;;;;;;6.25;3.45;;;;;;;21.42;43.41;102065.84;5052664;28;20031;-82
2021/09/20 00:45:31;;;;;;;5.43;3.28;;;;;;;21.22;43.88;102066.81;5051214;28;20438;-82
2021/09/20 00:47:56;;;;;;;5.18;3.17;;;;;;;21.25;43.79;102068.91;5051351;28;20029;-82
2021/09/20 00:50:22;;;;;;;4.85;2.92;;;;;;;21.14;44.21;102068.59;5051166;28;20391;-82
2021/09/20 00:52:48;;;;;;;5.15;2.88;;;;;;;21.10;44.07;102064.91;5051253;28;20036;-83
2021/09/20 00:55:14;;;;;;;6.18;3.17;;;;;;;21.19;43.71;102065.56;5052365;28;20457;-82
2021/09/20 00:57:41;;;;;;;4.95;3.42;;;;;;;21.23;43.74;102065.66;5052456;28;20126;-81
2021/09/20 01:00:08;;;;;;;6.78;3.25;;;;;;;21.14;43.93;102065.81;5051134;28;20029;-82
2021/09/20 01:02:34;;;;;;;10.00;4.18;;;;;;;21.19;43.79;102067.53;5052445;28;20417;-82
2021/09/20 01:05:00;;;;;;;6.00;3.40;;;;;;;21.13;44.08;102069.75;5052256;28;20064;-81
2021/09/20 01:07:26;;;;;;;5.97;3.10;;;;;;;20.99;44.06;102069.34;5051008;28;20118;-81
2021/09/20 01:09:52;;;;;;;6.38;3.85;;;;;;;21.00;44.30;102065.38;5050954;28;20029;-82
2021/09/20 01:12:18;;;;;;;5.90;3.33;;;;;;;20.92;44.65;102064.38;5051019;28;20048;-82
2021/09/20 01:14:44;;;;;;;6.93;3.13;;;;;;;20.94;44.56;102070.41;5052292;28;20083;-81
2021/09/20 01:17:10;;;;;;;8.63;3.95;;;;;;;20.89;44.65;102065.09;5050912;28;20033;-82
2021/09/20 01:19:36;;;;;;;3.95;2.92;;;;;;;20.94;44.50;102067.63;5052156;28;20184;-82
2021/09/20 01:22:04;;;;;;;6.47;3.28;;;;;;;20.99;44.52;102063.78;5055045;28;20111;-81
2021/09/20 01:24:31;;;;;;;6.43;3.10;;;;;;;21.08;44.30;102066.41;5054800;28;20025;-82
2021/09/20 01:27:02;;;;;;;7.53;2.90;;;;;;;21.10;44.03;102064.91;5054673;28;20115;-81
2021/09/20 01:29:28;;;;;;;7.63;3.53;;;;;;;21.06;43.89;102061.22;5055893;28;20041;-81
2021/09/20 01:31:53;;;;;;;7.82;3.30;;;;;;;21.02;44.13;102061.13;5054668;28;20593;-81
2021/09/20 01:34:20;;;;;;;8.75;3.65;;;;;;;20.85;44.51;102063.34;5055853;28;20023;-82
2021/09/20 01:36:46;;;;;;;6.93;3.25;;;;;;;21.00;44.14;102057.84;5054362;28;20037;-82
2021/09/20 01:39:21;;;;;;;5.63;2.90;;;;;;;20.96;44.45;102062.50;5054468;28;20090;-82
2021/09/20 01:41:47;;;;;;;9.15;3.55;;;;;;;20.92;44.34;102061.59;5054456;28;20479;-82
2021/09/20 01:44:13;;;;;;;5.72;3.28;;;;;;;20.95;44.13;102060.91;5055735;28;20049;-82
2021/09/20 01:46:47;;;;;;;6.20;2.95;;;;;;;20.81;44.42;102059.66;5054198;28;20060;-82
2021/09/20 01:49:13;;;;;;;11.45;3.50;;;;;;;20.92;44.13;102058.81;5055637;28;20021;-81
2021/09/20 01:51:39;;;;;;;3.67;2.47;;;;;;;20.98;43.90;102056.59;5071803;28;20028;-82
2021/09/20 01:54:05;;;;;;;9.27;3.40;;;;;;;21.00;43.93;102057.06;5068768;28;20115;-80
2021/09/20 01:56:32;;;;;;;6.63;2.88;;;;;;;21.03;43.78;102061.91;5063490;28;20028;-79
2021/09/20 01:58:58;;;;;;;5.43;2.58;;;;;;;21.03;43.67;102056.38;5064860;28;20545;-79
2021/09/20 02:01:25;;;;;;;5.80;2.60;;;;;;;21.05;43.47;102054.84;5063168;28;20387;-79
2021/09/20 02:03:52;;;;;;;4.13;2.80;;;;;;;20.96;43.89;102064.50;5063349;28;20044;-80
2021/09/20 02:06:18;;;;;;;8.32;3.15;;;;;;;20.98;43.67;102060.19;5079082;28;20081;-79
2021/09/20 02:08:43;;;;;;;6.88;2.67;;;;;;;20.96;43.63;102065.28;5060606;28;20107;-80
2021/09/20 02:11:09;;;;;;;8.65;3.45;;;;;;;21.01;43.40;102062.28;5069921;28;20016;-79
2021/09/20 02:13:35;;;;;;;7.82;2.95;;;;;;;21.02;43.39;102068.66;5073910;28;20032;-80
2021/09/20 02:16:00;;;;;;;11.88;3.63;;;;;;;21.00;43.31;102071.75;5073904;28;20021;-79
2021/09/20 02:18:26;;;;;;;7.35;2.75;;;;;;;20.97;43.35;102072.47;5071002;28;20016;-80
2021/09/20 02:20:52;;;;;;;5.82;2.92;;;;;;;20.99;43.34;102072.91;5073748;28;20026;-80
2021/09/20 02:23:18;;;;;;;5.35;3.03;;;;;;;20.91;43.59;102073.06;5073711;28;20059;-79
2021/09/20 02:25:43;;;;;;;6.35;2.75;;;;;;;20.82;43.53;102081.53;5072197;28;20021;-79
2021/09/20 02:28:10;;;;;;;8.40;3.08;;;;;;;20.82;43.34;102081.53;5073238;28;20020;-80
2021/09/20 02:30:36;;;;;;;8.60;3.40;;;;;;;20.98;42.99;102087.97;5073605;28;20013;-80
2021/09/20 02:33:02;;;;;;;10.05;3.25;;;;;;;21.01;42.97;102090.06;5072686;28;20036;-79
2021/09/20 02:35:28;;;;;;;9.90;3.80;;;;;;;21.04;42.88;102089.34;5072250;28;20028;-78
2021/09/20 02:37:53;;;;;;;10.85;3.55;;;;;;;21.15;42.22;102095.22;5073282;28;20041;-79
2021/09/20 02:40:19;;;;;;;6.57;2.75;;;;;;;21.17;42.63;102094.88;5073219;28;20050;-80
2021/09/20 02:42:44;;;;;;;7.55;2.67;;;;;;;21.13;42.76;102096.75;5072004;28;20059;-79
2021/09/20 02:45:11;;;;;;;9.02;2.47;;;;;;;20.99;42.95;102097.91;5072074;28;20024;-79
2021/09/20 02:47:37;;;;;;;7.60;2.28;;;;;;;20.91;43.22;102107.22;5071171;28;20025;-80
2021/09/20 02:50:04;;;;;;;6.50;2.50;;;;;;;20.89;43.27;102111.50;5072058;28;20107;-79
2021/09/20 02:52:30;;;;;;;7.20;2.95;;;;;;;20.91;43.20;102111.97;5072723;28;20099;-80
2021/09/20 02:54:55;;;;;;;11.23;2.88;;;;;;;20.87;43.27;102114.63;5071793;28;20111;-81
2021/09/20 02:57:21;;;;;;;6.88;2.63;;;;;;;20.90;43.08;102116.69;5072996;28;20043;-81
2021/09/20 02:59:46;;;;;;;13.20;5.10;;;;;;;20.91;43.11;102104.44;5070264;28;20021;-80
2021/09/20 03:02:12;;;;;;;12.07;2.47;;;;;;;20.83;43.27;102107.34;5071666;28;20020;-81
2021/09/20 03:04:38;;;;;;;6.32;2.38;;;;;;;20.84;43.00;102106.97;5072871;28;20747;-81
2021/09/20 03:07:04;;;;;;;7.57;2.67;;;;;;;20.77;43.06;102107.56;5072666;28;20107;-80
2021/09/20 03:09:29;;;;;;;8.45;2.55;;;;;;;20.74;43.07;102108.28;5072778;28;20044;-80
2021/09/20 03:11:55;;;;;;;12.13;3.70;;;;;;;20.63;43.28;102117.41;5072670;28;20048;-81
2021/09/20 03:14:21;;;;;;;6.05;2.72;;;;;;;20.74;42.92;102113.84;5072631;28;20013;-80
2021/09/20 03:16:46;;;;;;;10.15;2.88;;;;;;;20.70;43.11;102121.22;5069810;28;20492;-80
2021/09/20 03:19:12;;;;;;;6.95;2.30;;;;;;;20.69;42.98;102121.59;5072494;28;20471;-80
2021/09/20 03:21:37;;;;;;;13.95;2.70;;;;;;;20.67;42.86;102123.91;5072450;28;20452;-80
2021/09/20 03:24:03;;;;;;;12.55;3.10;;;;;;;20.58;43.04;102120.44;5072433;28;20020;-80
2021/09/20 03:26:29;;;;;;;9.32;3.85;;;;;;;20.57;43.00;102114.09;5072275;28;20032;-80
2021/09/20 03:28:55;;;;;;;8.57;3.15;;;;;;;20.59;43.02;102125.66;5072293;28;20036;-81
2021/09/20 03:31:21;;;;;;;9.18;2.50;;;;;;;20.68;42.88;102120.78;5071041;28;20032;-82
2021/09/20 03:33:46;;;;;;;7.28;2.40;;;;;;;20.68;43.11;102128.31;5071135;28;20032;-82
2021/09/20 03:36:12;;;;;;;8.68;2.53;;;;;;;20.71;42.86;102122.06;5072086;28;20040;-81
2021/09/20 03:38:37;;;;;;;12.23;2.63;;;;;;;20.72;42.79;102138.38;5072267;28;20064;-82
2021/09/20 03:41:03;;;;;;;8.23;2.65;;;;;;;20.75;42.81;102131.31;5071866;28;20474;-81
2021/09/20 03:43:29;;;;;;;13.07;3.05;;;;;;;20.73;42.70;102133.63;5071918;28;20020;-80
2021/09/20 03:45:54;;;;;;;8.60;2.35;;;;;;;20.71;42.82;102139.53;5071885;28;20032;-80
2021/09/20 03:48:20;;;;;;;9.25;2.28;;;;;;;20.73;42.73;102147.53;5072104;28;20471;-81
2021/09/20 03:50:46;;;;;;;10.70;2.40;;;;;;;20.72;42.64;102146.72;5072275;28;20030;-80
2021/09/20 03:53:11;;;;;;;8.23;2.30;;;;;;;20.70;42.61;102148.19;5072084;28;20508;-80
2021/09/20 03:55:37;;;;;;;6.78;2.13;;;;;;;20.63;42.72;102143.25;5072087;28;20383;-80
2021/09/20 03:58:02;;;;;;;12.10;4.03;;;;;;;20.64;42.42;102155.97;5072048;28;20482;-83
2021/09/20 04:00:28;;;;;;;8.50;2.95;;;;;;;20.62;42.39;102160.25;5070710;28;20028;-82
2021/09/20 04:02:54;;;;;;;9.30;2.85;;;;;;;20.59;42.43;102161.75;5072056;28;20103;-81
2021/09/20 04:05:20;;;;;;;9.13;2.60;;;;;;;20.58;42.31;102168.47;5070596;28;20436;-81
2021/09/20 04:07:45;;;;;;;11.98;2.75;;;;;;;20.58;42.24;102160.13;5071736;28;20108;-81
2021/09/20 04:10:12;;;;;;;12.20;3.05;;;;;;;20.52;42.55;102174.59;5071820;28;20027;-82
2021/09/20 04:12:38;;;;;;;6.78;2.53;;;;;;;20.52;42.51;102169.84;5070540;28;20102;-82
2021/09/20 04:15:05;;;;;;;12.77;2.80;;;;;;;20.48;42.42;102169.75;5071967;28;20633;-80
2021/09/20 04:17:30;;;;;;;12.93;3.45;;;;;;;20.48;42.46;102172.53;5071651;28;20036;-82
2021/09/20 04:19:56;;;;;;;6.82;2.38;;;;;;;20.48;42.45;102174.50;5071790;28;20027;-79
2021/09/20 04:22:21;;;;;;;12.55;3.10;;;;;;;20.46;42.42;102177.59;5071619;28;20032;-81
2021/09/20 04:24:47;;;;;;;10.40;3.60;;;;;;;20.45;42.45;102177.94;5070377;28;20107;-82
2021/09/20 04:27:13;;;;;;;11.07;2.97;;;;;;;20.45;42.42;102181.53;5071508;28;20020;-81
2021/09/20 04:29:38;;;;;;;7.97;2.90;;;;;;;20.45;42.34;102181.53;5071595;28;20471;-80
2021/09/20 04:32:04;;;;;;;8.32;2.30;;;;;;;20.43;42.21;102181.03;5071374;28;20426;-81
2021/09/20 04:34:30;;;;;;;12.27;2.28;;;;;;;20.33;42.37;102175.94;5071566;28;20020;-82
2021/09/20 04:36:56;;;;;;;9.18;2.78;;;;;;;20.22;42.41;102180.31;5071174;28;20036;-83
2021/09/20 04:39:22;;;;;;;12.77;2.45;;;;;;;20.27;42.46;102182.88;5071632;28;20386;-83
2021/09/20 04:41:47;;;;;;;11.15;2.97;;;;;;;20.21;42.51;102185.03;5071470;28;20020;-79
2021/09/20 04:44:13;;;;;;;8.20;2.75;;;;;;;20.32;42.63;102188.16;5071488;28;20028;-80
2021/09/20 04:46:38;;;;;;;18.17;4.38;;;;;;;20.38;42.71;102183.22;5071370;28;20035;-80
2021/09/20 04:49:05;;;;;;;18.92;5.97;;;;;;;20.40;42.81;102187.28;5070020;28;20025;-80
2021/09/20 04:51:31;;;;;;;17.80;4.90;;;;;;;20.55;42.64;102182.22;5071454;28;20024;-79
2021/09/20 04:53:57;;;;;;;13.25;4.10;;;;;;;20.54;42.68;102184.19;5071396;28;20386;-79
2021/09/20 04:56:23;;;;;;;12.55;4.03;;;;;;;20.53;43.11;102195.66;5073002;28;20021;-79
2021/09/20 04:58:49;;;;;;;20.75;4.88;;;;;;;20.43;43.92;102208.78;5075468;28;20020;-79
2021/09/20 05:01:14;;;;;;;17.58;5.32;;;;;;;20.55;43.89;102209.97;5075339;28;20023;-80
2021/09/20 05:03:40;;;;;;;16.85;5.20;;;;;;;20.72;43.70;102221.69;5075328;28;20103;-81
2021/09/20 05:06:05;;;;;;;16.25;5.15;;;;;;;20.79;43.69;102215.56;5075087;28;20470;-82
2021/09/20 05:08:32;;;;;;;27.58;5.95;;;;;;;20.85;43.78;102222.50;5075340;28;20467;-79
2021/09/20 05:10:59;;;;;;;25.58;7.05;;;;;;;20.81;44.01;102221.59;5075172;28;20016;-80
2021/09/20 05:13:25;;;;;;;21.40;5.65;;;;;;;21.03;44.00;102218.34;5075145;28;20118;-80
2021/09/20 05:15:50;;;;;;;16.60;5.32;;;;;;;21.15;43.79;102219.47;5075201;28;20472;-79
2021/09/20 05:18:16;;;;;;;20.98;5.63;;;;;;;21.18;43.85;102233.50;5075089;28;20497;-81
2021/09/20 05:20:41;;;;;;;17.35;5.03;;;;;;;21.24;43.83;102229.31;5074981;28;20040;-79
2021/09/20 05:23:07;;;;;;;14.63;5.07;;;;;;;21.31;43.64;102237.09;5074835;28;20756;-79
2021/09/20 05:25:33;;;;;;;20.33;6.68;;;;;;;21.39;43.62;102238.94;5074789;28;20017;-80
2021/09/20 05:27:59;;;;;;;23.67;6.90;;;;;;;21.38;44.04;102244.84;5074812;28;20093;-81
2021/09/20 05:30:25;;;;;;;22.92;7.95;;;;;;;21.41;44.15;102250.53;5069741;28;20062;-81
2021/09/20 05:32:51;;;;;;;25.10;6.45;;;;;;;21.47;44.13;102254.69;5064782;28;20548;-81
2021/09/20 05:35:16;;;;;;;21.05;6.90;;;;;;;21.47;44.10;102257.47;5061055;28;20096;-82
2021/09/20 05:37:45;;;;;;;22.75;7.43;;;;;;;21.54;44.26;102251.31;5064832;28;20053;-80
2021/09/20 05:40:11;;;;;;;19.52;7.10;;;;;;;21.66;44.03;102258.78;5063507;28;20503;-79
2021/09/20 05:42:37;;;;;;;17.80;6.30;;;;;;;21.62;44.43;102253.13;5054097;28;20114;-79
2021/09/20 05:45:04;;;;;;;14.98;6.85;;;;;;;21.56;44.90;102255.34;5053846;28;20053;-80
2021/09/20 05:47:29;;;;;;;19.02;6.63;;;;;;;21.72;44.78;102249.06;5053838;28;20033;-79
2021/09/20 05:49:55;;;;;;;15.95;6.60;;;;;;;21.78;44.55;102250.44;5053985;28;20379;-79
2021/09/20 05:52:22;;;;;;;13.63;6.90;;;;;;;21.74;45.25;102252.28;5055365;28;20100;-79
2021/09/20 05:54:48;;;;;;;14.32;6.90;;;;;;;21.79;45.26;102250.06;5055549;28;20036;-79
2021/09/20 05:57:14;;;;;;;16.25;7.88;;;;;;;21.88;45.19;102249.91;5054691;28;20036;-79
2021/09/20 05:59:40;;;;;;;17.45;7.18;;;;;;;22.03;45.03;102251.94;5055515;28;20476;-79
2021/09/20 06:02:06;;;;;;;14.20;6.75;;;;;;;21.87;45.74;102249.09;5054081;28;20029;-79
2021/09/20 06:04:31;;;;;;;18.05;7.07;;;;;;;22.02;45.32;102258.66;5055364;28;20033;-79
2021/09/20 06:06:57;;;;;;;13.48;7.20;;;;;;;22.13;44.94;102261.78;5054335;28;20040;-79
2021/09/20 06:09:23;;;;;;;14.82;6.97;;;;;;;22.13;45.45;102267.34;5053579;28;20025;-80
2021/09/20 06:11:48;;;;;;;16.00;5.82;;;;;;;22.07;45.73;102266.78;5055136;28;20029;-80
2021/09/20 06:14:14;;;;;;;12.57;6.25;;;;;;;22.06;45.70;102256.78;5055113;28;20025;-78
2021/09/20 06:16:40;;;;;;;14.38;6.03;;;;;;;22.11;45.70;102253.78;5055205;28;20108;-79
2021/09/20 06:19:05;;;;;;;10.43;5.78;;;;;;;22.23;45.25;102255.72;5055060;28;20029;-79
2021/09/20 06:21:31;;;;;;;18.50;6.18;;;;;;;22.26;45.52;102262.53;5055073;28;20116;-78
2021/09/20 06:23:56;;;;;;;9.98;5.22;;;;;;;22.18;45.82;102255.16;5054684;28;20033;-78
2021/09/20 06:26:22;;;;;;;10.98;5.18;;;;;;;22.34;45.61;102267.13;5054826;28;20033;-78
2021/09/20 06:28:47;;;;;;;14.73;5.85;;;;;;;22.29;46.02;102270.16;5054931;28;20025;-78
2021/09/20 06:31:13;;;;;;;18.48;5.60;;;;;;;22.38;45.65;102268.03;5054957;28;20079;-78
2021/09/20 06:33:38;;;;;;;13.88;6.32;;;;;;;22.40;45.51;102272.09;5053542;28;20037;-78
2021/09/20 06:36:04;;;;;;;21.88;8.25;;;;;;;22.39;45.51;102264.91;5054584;28;20045;-77
2021/09/20 06:38:30;;;;;;;15.98;7.35;;;;;;;22.42;45.64;102271.72;5054683;28;20056;-78
2021/09/20 06:40:55;;;;;;;19.10;7.05;;;;;;;22.36;45.88;102273.13;5054665;28;20034;-78
2021/09/20 06:43:21;;;;;;;23.00;7.28;;;;;;;22.53;45.56;102283.16;5054656;28;20025;-78
2021/09/20 06:45:47;;;;;;;18.92;8.05;;;;;;;22.54;45.55;102279.22;5053127;28;20028;-79
2021/09/20 06:48:13;;;;;;;25.27;8.45;;;;;;;22.45;45.75;102282.16;5053681;28;20037;-82
2021/09/20 06:50:38;;;;;;;32.05;9.27;;;;;;;22.25;46.66;102286.78;5052580;28;20445;-78
2021/09/20 06:53:04;;;;;;;31.10;9.07;;;;;;;22.42;45.92;102278.09;5054482;28;20025;-79
2021/09/20 06:55:30;;;;;;;24.05;7.97;;;;;;;22.35;46.02;102268.75;5052749;28;20097;-79
2021/09/20 06:57:59;;;;;;;24.00;8.45;;;;;;;22.25;46.26;102284.00;5052790;28;20040;-79
2021/09/20 07:00:28;;;;;;;21.57;8.43;;;;;;;22.12;46.93;102288.81;5054140;28;20040;-79
2021/09/20 07:02:54;;;;;;;20.42;8.00;;;;;;;22.35;46.32;102291.81;5057429;28;20081;-80
2021/09/20 07:05:20;;;;;;;19.48;7.22;;;;;;;22.50;45.93;102293.03;5067366;28;20032;-80
2021/09/20 07:07:45;;;;;;;20.65;7.53;;;;;;;22.42;45.89;102297.59;5073929;28;20063;-80
2021/09/20 07:10:12;;;;;;;15.10;6.40;;;;;;;22.17;46.88;102293.31;5072820;28;20024;-83
2021/09/20 07:12:38;;;;;;;13.18;5.78;;;;;;;22.32;46.50;102286.16;5070388;28;20028;-85
2021/09/20 07:15:05;;;;;;;16.52;5.78;;;;;;;22.46;46.27;102292.13;5047188;28;20487;-74
2021/09/20 07:17:31;;;;;;;15.10;5.80;;;;;;;22.45;45.96;102290.53;5040449;28;20476;-75
2021/09/20 07:19:57;;;;;;;21.80;5.18;;;;;;;22.11;47.03;102295.53;5045216;28;20508;-75
2021/09/20 07:22:23;;;;;;;16.92;6.32;;;;;;;22.30;46.40;102296.88;5055712;28;20016;-76
2021/09/20 07:24:49;;;;;;;7.28;3.97;;;;;;;22.22;46.75;102281.09;5056084;28;20028;-84
2021/09/20 07:27:14;;;;;;;17.35;5.20;;;;;;;22.48;46.18;102302.91;5055455;28;20024;-76
2021/09/20 07:29:41;;;;;;;10.27;4.28;;;;;;;22.25;46.98;102303.50;5061113;28;20043;-75
2021/09/20 07:32:06;;;;;;;10.32;4.57;;;;;;;22.50;46.12;102301.38;5073710;28;20029;-76
2021/09/20 07:34:32;;;;;;;16.58;5.05;;;;;;;22.32;46.98;102312.03;5073490;28;20047;-76
2021/09/20 07:36:58;;;;;;;7.35;4.07;;;;;;;22.50;46.25;102306.13;5066134;28;20233;-77
2021/09/20 07:39:24;;;;;;;14.43;4.85;;;;;;;22.40;46.57;102299.13;5056272;28;20036;-76
2021/09/20 07:41:49;;;;;;;10.35;4.03;;;;;;;22.64;46.20;102304.53;5056620;28;20380;-76
2021/09/20 07:44:15;;;;;;;7.75;3.38;;;;;;;21.86;48.31;102302.34;5064681;28;20028;-76
2021/09/20 07:46:41;;;;;;;7.70;3.50;;;;;;;22.43;46.94;102309.53;5073220;28;20040;-76
2021/09/20 07:49:06;;;;;;;15.25;3.58;;;;;;;22.74;46.06;102319.09;5058170;28;20037;-76
2021/09/20 07:51:32;;;;;;;5.55;3.00;;;;;;;22.88;45.88;102323.09;5053202;28;20384;-76
2021/09/20 07:53:57;;;;;;;11.15;3.50;;;;;;;22.74;46.15;102322.69;5053309;28;20057;-76
2021/09/20 07:56:23;;;;;;;7.65;3.28;;;;;;;22.91;46.10;102321.59;5053016;28;20025;-77
2021/09/20 07:58:48;;;;;;;11.93;3.15;;;;;;;22.81;46.21;102341.59;5053307;28;20025;-76
2021/09/20 08:01:14;;;;;;;9.90;3.53;;;;;;;22.97;45.91;102348.00;5066060;28;20037;-78
2021/09/20 08:03:39;;;;;;;5.35;3.25;;;;;;;22.75;46.83;102345.81;5072869;28;20020;-76
2021/09/20 08:06:06;;;;;;;10.93;4.13;;;;;;;22.65;47.25;102344.34;5072945;28;20064;-76
2021/09/20 08:08:32;;;;;;;4.88;2.60;;;;;;;21.86;48.60;102352.41;5073116;28;20086;-87
2021/09/20 08:10:58;;;;;;;6.05;2.95;;;;;;;22.24;48.08;102357.56;5057526;28;20025;-86
2021/09/20 08:13:23;;;;;;;10.30;3.85;;;;;;;22.60;46.95;102362.16;5055250;28;20029;-88
2021/09/20 08:15:49;;;;;;;6.43;3.75;;;;;;;22.65;46.93;102356.31;5067513;28;20051;-77
2021/09/20 08:18:16;;;;;;;4.63;3.25;;;;;;;22.75;46.71;102365.31;5072340;28;20039;-76
2021/09/20 08:20:43;;;;;;;5.28;3.00;;;;;;;22.62;47.13;102368.19;5072247;28;20024;-77
2021/09/20 08:23:09;;;;;;;3.90;2.92;;;;;;;22.96;46.31;102363.13;5072258;28;20107;-78
2021/09/20 08:25:35;;;;;;;8.32;3.40;;;;;;;22.84;46.51;102371.53;5072813;28;20033;-77
2021/09/20 08:28:01;;;;;;;9.93;3.92;;;;;;;22.90;46.19;102375.72;5071516;28;20031;-77
2021/09/20 08:30:27;;;;;;;10.65;4.55;;;;;;;23.15;45.94;102381.94;5071756;28;20497;-77
2021/09/20 08:32:53;;;;;;;9.35;4.10;;;;;;;23.25;45.86;102384.97;5072325;28;20017;-85
2021/09/20 08:35:19;;;;;;;11.70;3.97;;;;;;;23.48;45.56;102382.34;5072672;28;20024;-76
2021/09/20 08:37:46;;;;;;;18.23;4.47;;;;;;;23.53;45.66;102389.66;5072742;28;20128;-77
2021/09/20 08:40:13;;;;;;;9.52;3.88;;;;;;;23.45;45.47;102388.66;5060865;28;20033;-77
2021/09/20 08:42:39;;;;;;;7.95;4.10;;;;;;;23.09;46.68;102394.53;5052734;28;20491;-76
2021/09/20 08:45:07;;;;;;;11.32;4.88;;;;;;;23.47;45.82;102399.47;5052658;28;20033;-77
2021/09/20 08:47:33;;;;;;;8.80;3.58;;;;;;;23.53;45.81;102395.22;5052743;28;20033;-76
2021/09/20 08:49:59;;;;;;;15.85;5.55;;;;;;;23.90;45.07;102406.09;5052649;28;20112;-76
2021/09/20 08:52:26;;;;;;;9.10;4.72;;;;;;;23.64;45.55;102399.09;5052566;28;20059;-76
2021/09/20 08:54:52;;;;;;;12.85;4.70;;;;;;;23.81;45.49;102409.09;5052337;28;20025;-76
2021/09/20 08:57:19;;;;;;;9.98;4.00;;;;;;;23.80;45.63;102408.28;5052570;28;20108;-87
2021/09/20 08:59:45;;;;;;;9.30;3.78;;;;;;;24.26;44.49;102405.69;5052577;28;20025;-87
2021/09/20 09:02:16;;;;;;;10.10;3.67;;;;;;;24.18;44.62;102419.84;5051037;28;20147;-76
2021/09/20 09:04:43;;;;;;;6.38;3.58;;;;;;;23.78;45.62;102412.59;5057436;28;20020;-76
2021/09/20 09:07:18;;;;;;;13.18;4.70;;;;;;;23.86;45.34;102419.94;5071800;28;20494;-77
2021/09/20 09:09:46;;;;;;;7.43;3.70;;;;;;;24.04;45.17;102420.38;5072105;28;20028;-77
2021/09/20 09:12:18;;;;;;;13.98;3.88;;;;;;;24.20;44.85;102417.53;5072005;28;20077;-77
2021/09/20 09:14:47;;;;;;;11.90;4.75;;;;;;;24.43;44.15;102417.63;5070433;28;20020;-76
2021/09/20 09:17:34;;;;;;;10.93;5.22;;;;;;;24.42;43.98;102422.41;5062765;28;20020;-76
2021/09/20 09:20:12;;;;;;;8.25;4.50;;;;;;;24.17;44.26;102426.63;5072164;28;20033;-76
2021/09/20 09:22:39;;;;;;;11.10;5.50;;;;;;;24.37;43.81;102422.72;5071993;28;20044;-76
2021/09/20 09:25:08;;;;;;;8.07;4.07;;;;;;;24.57;43.45;102426.31;5071988;28;20032;-76
2021/09/20 09:27:36;;;;;;;9.52;4.95;;;;;;;24.61;43.31;102433.56;5071884;28;20036;-76
2021/09/20 09:30:16;;;;;;;14.00;3.92;;;;;;;24.62;43.74;102437.19;5071956;28;20021;-76
2021/09/20 09:32:43;;;;;;;4.32;3.10;;;;;;;24.50;43.94;102437.34;5071935;28;20039;-76
2021/09/20 09:35:11;;;;;;;5.97;3.50;;;;;;;24.20;44.11;102443.47;5071484;28;20028;-76
2021/09/20 09:37:38;;;;;;;7.70;4.05;;;;;;;24.57;43.39;102443.88;5061166;28;20052;-76
2021/09/20 09:40:14;;;;;;;13.18;4.57;;;;;;;24.55;43.33;102445.41;5062453;28;20029;-77
2021/09/20 09:42:41;;;;;;;6.80;3.90;;;;;;;24.76;43.13;102445.84;5063976;28;20029;-77
2021/09/20 09:45:28;;;;;;;8.60;3.92;;;;;;;24.22;44.15;102451.47;5063218;28;20017;-77
2021/09/20 09:48:07;;;;;;;15.15;4.65;;;;;;;24.83;43.25;102446.00;5055540;28;20029;-76
2021/09/20 09:50:37;;;;;;;7.55;4.88;;;;;;;25.03;42.88;102448.78;5055525;28;20029;-77
2021/09/20 09:53:03;;;;;;;8.43;5.63;;;;;;;24.72;43.60;102461.75;5055476;28;20052;-85
2021/09/20 09:55:31;;;;;;;9.43;6.47;;;;;;;25.04;42.73;102451.22;5055770;28;20065;-78
2021/09/20 09:58:12;;;;;;;10.95;6.30;;;;;;;24.76;42.93;102459.81;5069647;28;20040;-78
2021/09/20 10:00:38;;;;;;;11.45;6.68;;;;;;;24.95;43.16;102461.00;5065543;28;20360;-77
2021/09/20 10:03:04;;;;;;;12.93;7.78;;;;;;;25.25;42.79;102459.19;5063941;28;20403;-77
2021/09/20 10:05:30;;;;;;;9.70;6.78;;;;;;;25.28;42.24;102461.25;5060263;28;20596;-77
2021/09/20 10:07:56;;;;;;;14.68;8.25;;;;;;;25.31;42.02;102460.47;5055078;28;20029;-77
2021/09/20 10:10:24;;;;;;;14.30;8.77;;;;;;;25.01;42.83;102476.28;5055126;28;20387;-77
2021/09/20 10:12:54;;;;;;;14.13;7.88;;;;;;;25.25;42.44;102466.78;5060765;28;20103;-77
2021/09/20 10:15:22;;;;;;;13.40;7.93;;;;;;;25.38;42.30;102471.78;5061662;28;20032;-76
2021/09/20 10:17:48;;;;;;;11.77;5.93;;;;;;;24.72;43.70;102477.72;5065522;28;20025;-77
2021/09/20 10:20:20;;;;;;;12.10;7.38;;;;;;;25.12;42.27;102474.53;5069633;28;20407;-77
2021/09/20 10:22:46;;;;;;;9.00;5.93;;;;;;;25.41;41.83;102473.88;5075003;28;20473;-77
2021/09/20 10:25:14;;;;;;;12.05;5.90;;;;;;;25.09;42.11;102480.84;5069853;28;20024;-77
2021/09/20 10:27:40;;;;;;;11.02;5.50;;;;;;;25.49;42.18;102468.41;5053542;28;20386;-77
2021/09/20 10:30:11;;;;;;;10.95;5.70;;;;;;;25.82;41.82;102473.34;5054724;28;20100;-76
2021/09/20 10:32:42;;;;;;;12.35;5.68;;;;;;;26.05;41.25;102476.91;5054840;28;20043;-77
2021/09/20 10:35:26;;;;;;;8.93;5.38;;;;;;;25.56;42.10;102472.13;5054681;28;20032;-77
2021/09/20 10:37:56;;;;;;;18.55;6.93;;;;;;;26.12;41.02;102479.00;5054644;28;20052;-77
2021/09/20 10:40:22;;;;;;;13.13;6.32;;;;;;;25.92;40.62;102472.69;5054720;28;20027;-86
2021/09/20 10:42:56;;;;;;;9.23;5.90;;;;;;;26.12;40.92;102477.00;5054437;28;20025;-77
2021/09/20 10:45:43;;;;;;;10.00;6.10;;;;;;;25.92;40.99;102476.34;5054340;28;20017;-77
2021/09/20 10:48:27;;;;;;;16.25;7.00;;;;;;;26.35;40.66;102479.72;5054509;28;20025;-77
2021/09/20 10:51:15;;;;;;;12.38;7.60;;;;;;;26.58;39.71;102488.06;5053317;28;20040;-85
2021/09/20 10:53:41;;;;;;;17.58;13.23;;;;;;;26.19;39.88;102487.50;5053638;28;20025;-76
2021/09/20 10:56:07;;;;;;;16.17;11.55;;;;;;;26.44;39.51;102483.09;5054288;28;20024;-76
2021/09/20 10:59:08;;;;;;;15.75;11.35;;;;;;;26.87;38.93;102478.00;5054476;28;20036;-82
2021/09/20 11:01:35;;;;;;;15.95;9.05;;;;;;;27.08;38.80;102469.06;5061383;28;20430;-78
2021/09/20 11:04:04;;;;;;;15.30;9.55;;;;;;;27.22;38.52;102469.19;5064011;28;20379;-77
2021/09/20 11:06:34;;;;;;;10.63;8.60;;;;;;;27.18;38.11;102467.53;5062179;28;20025;-87
2021/09/20 11:09:02;;;;;;;13.65;7.93;;;;;;;27.29;38.37;102468.47;5071808;28;20105;-77
2021/09/20 11:11:36;;;;;;;18.15;9.95;;;;;;;27.03;38.33;102475.78;5073791;28;20013;-77
2021/09/20 11:14:12;;;;;;;14.80;10.35;;;;;;;27.15;38.22;102477.53;5072302;28;20020;-75
2021/09/20 11:16:57;;;;;;;15.68;11.00;;;;;;;27.42;37.65;102483.00;5073992;28;20035;-76
2021/09/20 11:19:28;;;;;;;18.67;11.73;;;;;;;27.45;37.48;102474.63;5073798;28;20036;-76
2021/09/20 11:22:13;;;;;;;14.40;10.77;;;;;;;26.98;38.18;102467.72;5073946;28;20031;-87